Hazel Dell, Illinois
Current Conditions -  °F | °C
As of 8:22 AM on Thursday 29 Jan 2015 (Local Time) from KMTO Reporting Station
Haze Haze  
Wind Chill: 26°   Ceiling: 1300
Heat Index: 37°   Visibility: 5mi
Dew Point: 32°   Wind: 24mph
Humidity: 82%   Direction: 290°WNW
Pressure: 29.88"   Gusts: 36mph
Location:  39.2272°N, 88.1132°W
Report Text: KMTO 291422Z AUTO 29021G31KT 5SM HZ OVC013 03/00 A2988 RMK AO2 PK WND 30031/1400 T00280000
Loading
Personal Weather Stations






























Interactive Weather Map New forecast layout! Learn more

10-Day Weather Forecast

Advertisements
Track Severe Weather on mobile